Terminal Aerodrome Forecast
Issued by NWS Dallas/Fort Worth, TX

Home | Current Version | Previous Version | Text Only | Print | Product List | Glossary On
Versions: 1 2 3 4 5 6 7 8 9 10 11 12 13 14 15 16 17 18 19 20 21 22 23 24 25
254
FTUS44 KFWD 030905 AAB
TAFACT
TAF AMD
KACT 030905Z 0309/0406 05012KT 5SM -RA BR OVC007
     FM031200 05010KT 4SM RA VCTS BKN005 OVC060CB
     FM031500 04012KT 2SM SHRA VCTS BKN004 OVC040CB
     FM032200 04012KT 4SM BR OVC003=

USA.gov is the U.S. government's official web portal to all federal, state and local government web resources and services.